createdAt,value
2018-07-20T00:00:45.507Z,22.7
2018-07-20T00:01:45.559Z,22.7
2018-07-20T00:02:45.627Z,22.7
2018-07-20T00:03:45.493Z,22.71
2018-07-20T00:04:55.585Z,22.7
2018-07-20T00:05:45.861Z,22.7
2018-07-20T00:06:45.851Z,22.7
2018-07-20T00:07:45.641Z,22.7
2018-07-20T00:08:45.700Z,22.7
2018-07-20T00:09:45.663Z,22.7
2018-07-20T00:10:45.753Z,22.71
2018-07-20T00:11:45.792Z,22.7
2018-07-20T00:12:45.602Z,22.7
2018-07-20T00:13:45.452Z,22.7
2018-07-20T00:14:45.591Z,22.7
2018-07-20T00:15:45.677Z,22.7
2018-07-20T00:16:45.953Z,22.7
2018-07-20T00:17:45.765Z,22.7
2018-07-20T00:18:45.686Z,22.7
2018-07-20T00:19:45.574Z,22.7
2018-07-20T00:20:45.645Z,22.7
2018-07-20T00:21:45.627Z,22.7
2018-07-20T00:22:45.510Z,22.7
2018-07-20T00:23:45.693Z,22.69
2018-07-20T00:24:45.526Z,22.69
2018-07-20T00:25:45.436Z,22.69
2018-07-20T00:26:45.597Z,22.7
2018-07-20T00:27:45.747Z,22.69
2018-07-20T00:28:45.462Z,22.7
2018-07-20T00:29:45.539Z,22.69
2018-07-20T00:30:45.527Z,22.69
2018-07-20T00:31:45.532Z,22.7
2018-07-20T00:32:45.556Z,22.7
2018-07-20T00:33:45.450Z,22.69
2018-07-20T00:34:45.670Z,22.69
2018-07-20T00:35:45.662Z,22.7
2018-07-20T00:36:45.504Z,22.69
2018-07-20T00:37:45.570Z,22.69
2018-07-20T00:38:45.669Z,22.69
2018-07-20T00:39:45.535Z,22.69
2018-07-20T00:40:45.886Z,22.69
2018-07-20T00:41:45.736Z,22.7
2018-07-20T00:42:45.606Z,22.69
2018-07-20T00:43:45.768Z,22.69
2018-07-20T00:44:45.542Z,22.69
2018-07-20T00:45:45.610Z,22.69
2018-07-20T00:46:45.658Z,22.68
2018-07-20T00:47:45.540Z,22.69
2018-07-20T00:48:45.565Z,22.69
2018-07-20T00:49:45.577Z,22.69
2018-07-20T00:50:45.547Z,22.69
2018-07-20T00:51:45.791Z,22.69
2018-07-20T00:52:45.715Z,22.69
2018-07-20T00:53:45.482Z,22.69
2018-07-20T00:54:45.528Z,22.69
2018-07-20T00:55:45.610Z,22.69
2018-07-20T00:56:45.636Z,22.69
2018-07-20T00:57:45.577Z,22.68
2018-07-20T00:58:45.720Z,22.69
2018-07-20T00:59:45.653Z,22.68
2018-07-20T01:00:45.483Z,22.68
2018-07-20T01:01:45.602Z,22.68
2018-07-20T01:02:45.523Z,22.69
2018-07-20T01:03:45.736Z,22.68
2018-07-20T01:04:45.608Z,22.68
2018-07-20T01:05:45.724Z,22.69
2018-07-20T01:06:45.791Z,22.68
2018-07-20T01:07:45.628Z,22.68
2018-07-20T01:08:45.506Z,22.68
2018-07-20T01:09:45.654Z,22.68
2018-07-20T01:10:45.534Z,22.68
2018-07-20T01:11:45.622Z,22.68
2018-07-20T01:12:45.731Z,22.68
2018-07-20T01:13:45.540Z,22.68
2018-07-20T01:14:45.605Z,22.68
2018-07-20T01:15:45.601Z,22.68
2018-07-20T01:16:45.810Z,22.68
2018-07-20T01:17:45.714Z,22.68
2018-07-20T01:18:45.602Z,22.69
2018-07-20T01:19:45.574Z,22.68
2018-07-20T01:20:45.592Z,22.68
2018-07-20T01:21:45.821Z,22.68
2018-07-20T01:22:45.576Z,22.68
2018-07-20T01:23:45.638Z,22.68
2018-07-20T01:24:45.654Z,22.68
2018-07-20T01:25:45.668Z,22.68
2018-07-20T01:26:45.552Z,22.68
2018-07-20T01:27:45.640Z,22.68
2018-07-20T01:28:45.556Z,22.68
2018-07-20T01:29:45.524Z,22.68
2018-07-20T01:30:45.593Z,22.68
2018-07-20T01:31:45.569Z,22.68
2018-07-20T01:32:45.637Z,22.68
2018-07-20T01:33:45.575Z,22.68
2018-07-20T01:34:45.717Z,22.68
2018-07-20T01:35:45.545Z,22.68
2018-07-20T01:36:45.656Z,22.67
2018-07-20T01:37:45.657Z,22.68
2018-07-20T01:38:45.589Z,22.68
2018-07-20T01:39:45.522Z,22.68
2018-07-20T01:40:45.433Z,22.68
2018-07-20T01:41:45.612Z,22.68
2018-07-20T01:42:45.465Z,22.68
2018-07-20T01:43:45.493Z,22.68
2018-07-20T01:44:45.709Z,22.67
2018-07-20T01:45:45.509Z,22.67
2018-07-20T01:46:45.564Z,22.68
2018-07-20T01:47:45.697Z,22.67
2018-07-20T01:48:45.583Z,22.67
2018-07-20T01:49:45.478Z,22.67
2018-07-20T01:50:45.548Z,22.68
2018-07-20T01:51:45.618Z,22.67
2018-07-20T01:52:45.548Z,22.67
2018-07-20T01:53:45.440Z,22.67
2018-07-20T01:54:45.566Z,22.67
2018-07-20T01:55:45.713Z,22.67
2018-07-20T01:56:45.570Z,22.67
2018-07-20T01:57:45.542Z,22.67
2018-07-20T01:58:45.680Z,22.67
2018-07-20T01:59:45.577Z,22.66
2018-07-20T02:00:45.554Z,22.66
2018-07-20T02:01:45.649Z,22.67
2018-07-20T02:02:45.878Z,22.66
2018-07-20T02:03:45.551Z,22.66
2018-07-20T02:04:45.596Z,22.67
2018-07-20T02:05:45.412Z,22.67
2018-07-20T02:06:45.922Z,22.67
2018-07-20T02:07:45.530Z,22.67
2018-07-20T02:08:45.634Z,22.67
2018-07-20T02:09:45.560Z,22.66
2018-07-20T02:10:45.634Z,22.67
2018-07-20T02:11:45.763Z,22.66
2018-07-20T02:12:45.563Z,22.66
2018-07-20T02:13:45.597Z,22.67
2018-07-20T02:14:45.772Z,22.66
2018-07-20T02:15:45.717Z,22.66
2018-07-20T02:16:45.735Z,22.66
2018-07-20T02:17:45.867Z,22.67
2018-07-20T02:18:45.857Z,22.67
2018-07-20T02:19:45.547Z,22.66
2018-07-20T02:20:45.577Z,22.65
2018-07-20T02:21:45.552Z,22.67
2018-07-20T02:22:45.862Z,22.66
2018-07-20T02:23:45.812Z,22.67
2018-07-20T02:24:45.638Z,22.66
2018-07-20T02:25:45.428Z,22.66
2018-07-20T02:26:45.459Z,22.66
2018-07-20T02:27:45.671Z,22.65
2018-07-20T02:28:45.687Z,22.66
2018-07-20T02:29:45.492Z,22.66
2018-07-20T02:30:45.644Z,22.65
2018-07-20T02:31:45.597Z,22.66
2018-07-20T02:32:45.554Z,22.66
2018-07-20T02:33:45.714Z,22.66
2018-07-20T02:34:45.559Z,22.66
2018-07-20T02:35:45.906Z,22.66
2018-07-20T02:36:45.665Z,22.66
2018-07-20T02:37:45.641Z,22.66
2018-07-20T02:38:45.538Z,22.66
2018-07-20T02:39:45.666Z,22.66
2018-07-20T02:40:45.845Z,22.66
2018-07-20T02:41:45.918Z,22.66
2018-07-20T02:42:45.526Z,22.66
2018-07-20T02:43:45.515Z,22.65
2018-07-20T02:44:45.526Z,22.65
2018-07-20T02:45:45.743Z,22.66
2018-07-20T02:46:45.617Z,22.66
2018-07-20T02:47:45.557Z,22.64
2018-07-20T02:48:45.641Z,22.65
2018-07-20T02:49:45.618Z,22.66
2018-07-20T02:50:45.676Z,22.65
2018-07-20T02:51:45.429Z,22.64
2018-07-20T02:52:45.523Z,22.65
2018-07-20T02:53:45.423Z,22.65
2018-07-20T02:54:45.423Z,22.65
2018-07-20T02:55:45.661Z,22.65
2018-07-20T02:56:45.633Z,22.65
2018-07-20T02:57:45.565Z,22.65
2018-07-20T02:58:45.500Z,22.65
2018-07-20T02:59:45.465Z,22.65
2018-07-20T03:00:45.439Z,22.65
2018-07-20T03:01:45.546Z,22.65
2018-07-20T03:02:45.553Z,22.64
2018-07-20T03:03:45.439Z,22.65
2018-07-20T03:04:45.470Z,22.64
2018-07-20T03:05:45.645Z,22.64
2018-07-20T03:06:45.626Z,22.64
2018-07-20T03:07:45.604Z,22.65
2018-07-20T03:08:45.643Z,22.64
2018-07-20T03:09:45.532Z,22.64
2018-07-20T03:10:45.516Z,22.65
2018-07-20T03:11:45.660Z,22.64
2018-07-20T03:12:45.842Z,22.65
2018-07-20T03:13:45.656Z,22.64
2018-07-20T03:14:45.672Z,22.64
2018-07-20T03:15:45.775Z,22.64
2018-07-20T03:16:45.597Z,22.64
2018-07-20T03:17:45.566Z,22.64
2018-07-20T03:18:45.527Z,22.64
2018-07-20T03:19:45.603Z,22.64
2018-07-20T03:20:45.745Z,22.64
2018-07-20T03:21:45.647Z,22.64
2018-07-20T03:22:45.664Z,22.63
2018-07-20T03:23:45.656Z,22.64
2018-07-20T03:24:45.551Z,22.64
2018-07-20T03:25:45.722Z,22.63
2018-07-20T03:26:45.793Z,22.64
2018-07-20T03:27:45.535Z,22.63
2018-07-20T03:28:45.455Z,22.63
2018-07-20T03:29:45.603Z,22.63
2018-07-20T03:30:45.609Z,22.64
2018-07-20T03:31:45.526Z,22.64
2018-07-20T03:32:45.808Z,22.65
2018-07-20T03:33:45.564Z,22.64
2018-07-20T03:34:45.528Z,22.64
2018-07-20T03:35:45.751Z,22.64
2018-07-20T03:36:45.612Z,22.64
2018-07-20T03:37:45.396Z,22.64
2018-07-20T03:38:45.672Z,22.63
2018-07-20T03:39:45.620Z,22.63
2018-07-20T03:40:45.641Z,22.63
2018-07-20T03:41:45.429Z,22.63
2018-07-20T03:42:45.569Z,22.63
2018-07-20T03:43:45.392Z,22.63
2018-07-20T03:44:45.543Z,22.63
2018-07-20T03:45:45.555Z,22.63
2018-07-20T03:46:45.506Z,22.63
2018-07-20T03:47:45.500Z,22.63
2018-07-20T03:48:45.556Z,22.61
2018-07-20T03:49:45.532Z,22.64
2018-07-20T03:50:45.590Z,22.63
2018-07-20T03:51:45.672Z,22.62
2018-07-20T03:52:45.575Z,22.62
2018-07-20T03:53:45.507Z,22.63
2018-07-20T03:54:45.394Z,22.62
2018-07-20T03:55:45.459Z,22.63
2018-07-20T03:56:45.633Z,22.63
2018-07-20T03:57:45.642Z,22.63
2018-07-20T03:58:45.648Z,22.62
2018-07-20T03:59:45.717Z,22.63
2018-07-20T04:00:45.556Z,22.62
2018-07-20T04:01:45.618Z,22.63
2018-07-20T04:02:45.600Z,22.62
2018-07-20T04:03:45.599Z,22.63
2018-07-20T04:04:45.461Z,22.63
2018-07-20T04:05:45.638Z,22.62
2018-07-20T04:06:45.475Z,22.62
2018-07-20T04:07:45.479Z,22.62
2018-07-20T04:08:45.628Z,22.61
2018-07-20T04:09:45.652Z,22.62
2018-07-20T04:10:45.523Z,22.62
2018-07-20T04:11:45.607Z,22.61
2018-07-20T04:12:45.481Z,22.61
2018-07-20T04:13:45.368Z,22.61
2018-07-20T04:14:45.421Z,22.6
2018-07-20T04:15:45.362Z,22.61
2018-07-20T04:16:45.581Z,22.61
2018-07-20T04:17:45.591Z,22.61
2018-07-20T04:18:45.426Z,22.59
2018-07-20T04:19:45.666Z,22.61
2018-07-20T04:20:45.636Z,22.61
2018-07-20T04:21:45.529Z,22.62
2018-07-20T04:22:45.552Z,22.61
2018-07-20T04:23:45.619Z,22.61
2018-07-20T04:24:45.727Z,22.61
2018-07-20T04:25:45.582Z,22.6
2018-07-20T04:26:45.581Z,22.61
2018-07-20T04:27:45.780Z,22.61
2018-07-20T04:28:45.445Z,22.61
2018-07-20T04:29:45.611Z,22.61
2018-07-20T04:30:45.706Z,22.61
2018-07-20T04:31:45.473Z,22.61
2018-07-20T04:32:45.760Z,22.61
2018-07-20T04:33:45.526Z,22.61
2018-07-20T04:34:45.515Z,22.6
2018-07-20T04:35:45.634Z,22.6
2018-07-20T04:36:45.743Z,22.59
2018-07-20T04:37:45.561Z,22.6
2018-07-20T04:38:45.395Z,22.61
2018-07-20T04:39:45.571Z,22.6
2018-07-20T04:40:45.521Z,22.6
2018-07-20T04:41:45.553Z,22.61
2018-07-20T04:42:45.474Z,22.59
2018-07-20T04:43:45.690Z,22.6
2018-07-20T04:44:45.559Z,22.61
2018-07-20T04:45:45.658Z,22.6
2018-07-20T04:46:45.419Z,22.6
2018-07-20T04:47:45.832Z,22.61
2018-07-20T04:48:45.497Z,22.6
2018-07-20T04:49:45.535Z,22.61
2018-07-20T04:50:45.488Z,22.61
2018-07-20T04:51:45.463Z,22.61
2018-07-20T04:52:45.627Z,22.59
2018-07-20T04:53:45.475Z,22.6
2018-07-20T04:54:45.595Z,22.59
2018-07-20T04:55:45.545Z,22.59
2018-07-20T04:56:45.677Z,22.6
2018-07-20T04:57:45.413Z,22.59
2018-07-20T04:58:45.611Z,22.59
2018-07-20T04:59:45.373Z,22.6
2018-07-20T05:00:45.442Z,22.59
2018-07-20T05:01:45.516Z,22.61
2018-07-20T05:02:45.552Z,22.6
2018-07-20T05:03:45.688Z,22.6
2018-07-20T05:04:45.769Z,22.6
2018-07-20T05:05:45.390Z,22.61
2018-07-20T05:06:45.468Z,22.6
2018-07-20T05:07:45.731Z,22.61
2018-07-20T05:08:45.642Z,22.6
2018-07-20T05:09:45.603Z,22.61
2018-07-20T05:10:45.608Z,22.59
2018-07-20T05:11:45.632Z,22.62
2018-07-20T05:12:45.488Z,22.61
2018-07-20T05:13:45.728Z,22.61
2018-07-20T05:14:45.506Z,22.62
2018-07-20T05:15:45.622Z,22.59
2018-07-20T05:16:45.544Z,22.61
2018-07-20T05:17:45.565Z,22.62
2018-07-20T05:18:45.391Z,22.59
2018-07-20T05:19:45.539Z,22.6
2018-07-20T05:20:45.583Z,22.61
2018-07-20T05:21:45.729Z,22.6
2018-07-20T05:22:45.471Z,22.6
2018-07-20T05:23:45.477Z,22.61
2018-07-20T05:24:45.610Z,22.6
2018-07-20T05:25:45.390Z,22.59
2018-07-20T05:26:45.619Z,22.59
2018-07-20T05:27:45.498Z,22.6
2018-07-20T05:28:45.532Z,22.61
2018-07-20T05:29:45.600Z,22.6
2018-07-20T05:30:45.578Z,22.6
2018-07-20T05:31:45.524Z,22.6
2018-07-20T05:32:45.423Z,22.6
2018-07-20T05:33:45.543Z,22.61
2018-07-20T05:34:45.369Z,22.6
2018-07-20T05:35:45.551Z,22.58
2018-07-20T05:36:45.404Z,22.59
2018-07-20T05:37:45.481Z,22.59
2018-07-20T05:38:45.500Z,22.6
2018-07-20T05:39:45.681Z,22.59
2018-07-20T05:40:45.648Z,22.59
2018-07-20T05:41:45.579Z,22.6
2018-07-20T05:42:45.492Z,22.6
2018-07-20T05:43:45.628Z,22.61
2018-07-20T05:44:45.491Z,22.59
2018-07-20T05:45:45.664Z,22.59
2018-07-20T05:46:45.652Z,22.59
2018-07-20T05:47:45.477Z,22.6
2018-07-20T05:48:45.487Z,22.59
2018-07-20T05:49:45.611Z,22.6
2018-07-20T05:50:45.580Z,22.6
2018-07-20T05:51:45.633Z,22.58
2018-07-20T05:52:45.629Z,22.59
2018-07-20T05:53:45.490Z,22.6
2018-07-20T05:54:45.379Z,22.58
2018-07-20T05:55:45.441Z,22.61
2018-07-20T05:56:45.558Z,22.59
2018-07-20T05:57:45.603Z,22.59
2018-07-20T05:58:45.665Z,22.58
2018-07-20T05:59:45.602Z,22.6
2018-07-20T06:00:45.518Z,22.59
2018-07-20T06:01:45.585Z,22.61
2018-07-20T06:02:45.758Z,22.59
2018-07-20T06:03:45.406Z,22.59
2018-07-20T06:04:45.549Z,22.58
2018-07-20T06:05:45.787Z,22.59
2018-07-20T06:06:45.672Z,22.6
2018-07-20T06:07:45.534Z,22.6
2018-07-20T06:08:45.423Z,22.61
2018-07-20T06:09:45.513Z,22.59
2018-07-20T06:10:45.540Z,22.59
2018-07-20T06:11:45.597Z,22.59
2018-07-20T06:12:45.605Z,22.59
2018-07-20T06:13:45.449Z,22.6
2018-07-20T06:14:45.430Z,22.6
2018-07-20T06:15:45.574Z,22.59
2018-07-20T06:16:45.590Z,22.59
2018-07-20T06:17:45.658Z,22.59
2018-07-20T06:18:45.595Z,22.59
2018-07-20T06:19:45.585Z,22.59
2018-07-20T06:20:45.580Z,22.59
2018-07-20T06:22:07.579Z,22.59
2018-07-20T06:22:45.511Z,22.59
2018-07-20T06:23:45.628Z,22.59
2018-07-20T06:24:55.524Z,22.58
2018-07-20T06:25:47.175Z,22.59
2018-07-20T06:26:45.389Z,22.59
2018-07-20T06:27:45.540Z,22.58
2018-07-20T06:28:45.525Z,22.58
2018-07-20T06:29:45.610Z,22.59
2018-07-20T06:30:45.512Z,22.6
2018-07-20T06:31:45.572Z,22.59
2018-07-20T06:32:45.507Z,22.59
2018-07-20T06:33:45.337Z,22.58
2018-07-20T06:34:45.487Z,22.59
2018-07-20T06:35:45.427Z,22.58
2018-07-20T06:36:45.601Z,22.59
2018-07-20T06:37:45.385Z,22.59
2018-07-20T06:38:45.529Z,22.59
2018-07-20T06:39:45.561Z,22.6
2018-07-20T06:40:45.601Z,22.59
2018-07-20T06:41:45.421Z,22.6
2018-07-20T06:42:45.365Z,22.58
2018-07-20T06:43:45.404Z,22.59
2018-07-20T06:44:45.676Z,22.59
2018-07-20T06:45:45.392Z,22.61
2018-07-20T06:46:45.554Z,22.59
2018-07-20T06:47:45.387Z,22.59
2018-07-20T06:48:45.542Z,22.59
2018-07-20T06:49:45.664Z,22.59
2018-07-20T06:50:45.733Z,22.59
2018-07-20T06:51:45.359Z,22.59
2018-07-20T06:52:45.666Z,22.6
2018-07-20T06:53:45.554Z,22.6
2018-07-20T06:54:45.519Z,22.6
2018-07-20T06:55:45.583Z,22.59
2018-07-20T06:56:45.632Z,22.59
2018-07-20T06:57:45.583Z,22.59
2018-07-20T06:58:45.434Z,22.59
2018-07-20T06:59:45.708Z,22.59
2018-07-20T07:00:45.423Z,22.57
2018-07-20T07:01:45.631Z,22.59
2018-07-20T07:02:45.552Z,22.59
2018-07-20T07:03:45.363Z,22.59
2018-07-20T07:04:45.577Z,22.58
2018-07-20T07:05:45.571Z,22.58
2018-07-20T07:06:45.528Z,22.58
2018-07-20T07:07:45.520Z,22.58
2018-07-20T07:08:45.534Z,22.59
2018-07-20T07:09:45.334Z,22.58
2018-07-20T07:10:45.466Z,22.59
2018-07-20T07:11:45.662Z,22.58
2018-07-20T07:12:45.430Z,22.58
2018-07-20T07:13:45.496Z,22.59
2018-07-20T07:14:45.606Z,22.59
2018-07-20T07:15:45.588Z,22.58
2018-07-20T07:16:45.571Z,22.59
2018-07-20T07:17:45.363Z,22.59
2018-07-20T07:18:45.540Z,22.58
2018-07-20T07:19:45.523Z,22.59
2018-07-20T07:20:45.638Z,22.6
2018-07-20T07:21:45.630Z,22.58
2018-07-20T07:22:45.443Z,22.61
2018-07-20T07:23:45.703Z,22.59
2018-07-20T07:24:45.536Z,22.58
2018-07-20T07:25:45.414Z,22.59
2018-07-20T07:26:45.477Z,22.59
2018-07-20T07:27:45.558Z,22.58
2018-07-20T07:28:45.599Z,22.59
2018-07-20T07:29:45.564Z,22.59
2018-07-20T07:30:45.778Z,22.59
2018-07-20T07:31:45.707Z,22.61
2018-07-20T07:32:45.655Z,22.62
2018-07-20T07:33:45.595Z,22.58
2018-07-20T07:34:45.512Z,22.59
2018-07-20T07:35:45.613Z,22.58
2018-07-20T07:36:45.349Z,22.57
2018-07-20T07:37:45.436Z,22.58
2018-07-20T07:38:45.557Z,22.58
2018-07-20T07:39:45.522Z,22.58
2018-07-20T07:40:45.539Z,22.59
2018-07-20T07:41:45.393Z,22.58
2018-07-20T07:42:45.617Z,22.59
2018-07-20T07:43:45.558Z,22.59
2018-07-20T07:44:45.525Z,22.59
2018-07-20T07:45:45.440Z,22.59
2018-07-20T07:46:45.659Z,22.59
2018-07-20T07:47:45.501Z,22.59
2018-07-20T07:48:45.587Z,22.59
2018-07-20T07:49:45.563Z,22.59
2018-07-20T07:50:45.398Z,22.59
2018-07-20T07:51:45.545Z,22.59
2018-07-20T07:52:45.513Z,22.59
2018-07-20T07:53:45.612Z,22.59
2018-07-20T07:54:45.593Z,22.59
2018-07-20T07:55:45.545Z,22.59
2018-07-20T07:56:45.476Z,22.6
2018-07-20T07:57:45.359Z,22.59
2018-07-20T07:58:45.312Z,22.61
2018-07-20T07:59:45.557Z,22.6
2018-07-20T08:00:45.536Z,22.6
2018-07-20T08:01:45.537Z,22.6
2018-07-20T08:02:45.605Z,22.59
2018-07-20T08:03:45.348Z,22.59
2018-07-20T08:04:45.373Z,22.59
2018-07-20T08:05:45.650Z,22.61
2018-07-20T08:06:45.298Z,22.59
2018-07-20T08:07:45.529Z,22.59
2018-07-20T08:08:45.439Z,22.59
2018-07-20T08:09:45.550Z,22.6
2018-07-20T08:10:45.495Z,22.6
2018-07-20T08:11:45.839Z,22.6
2018-07-20T08:12:45.479Z,22.6
2018-07-20T08:13:45.519Z,22.6
2018-07-20T08:14:45.564Z,22.59
2018-07-20T08:15:45.468Z,22.6
2018-07-20T08:16:45.411Z,22.59
2018-07-20T08:17:45.672Z,22.59
2018-07-20T08:18:45.520Z,22.6
2018-07-20T08:19:45.591Z,22.59
2018-07-20T08:20:45.740Z,22.59
2018-07-20T08:21:45.322Z,22.59
2018-07-20T08:22:45.652Z,22.59
2018-07-20T08:23:45.616Z,22.58
2018-07-20T08:24:46.068Z,22.59
2018-07-20T08:25:45.747Z,22.59
2018-07-20T08:26:45.668Z,22.58
2018-07-20T08:27:45.510Z,22.58
2018-07-20T08:28:45.380Z,22.59
2018-07-20T08:29:45.699Z,22.6
2018-07-20T08:30:45.329Z,22.59
2018-07-20T08:31:45.387Z,22.59
2018-07-20T08:32:45.522Z,22.59
2018-07-20T08:33:45.547Z,22.59
2018-07-20T08:34:45.568Z,22.61
2018-07-20T08:35:45.560Z,22.59
2018-07-20T08:36:45.631Z,22.58
2018-07-20T08:37:45.525Z,22.6
2018-07-20T08:38:45.618Z,22.59
2018-07-20T08:39:45.397Z,22.58
2018-07-20T08:40:45.537Z,22.59
2018-07-20T08:41:45.733Z,22.6
2018-07-20T08:42:45.379Z,22.59
2018-07-20T08:43:45.567Z,22.59
2018-07-20T08:44:45.478Z,22.59
2018-07-20T08:45:45.819Z,22.59
2018-07-20T08:46:45.488Z,22.58
2018-07-20T08:47:45.401Z,22.59
2018-07-20T08:48:45.593Z,22.58
2018-07-20T08:49:45.566Z,22.59
2018-07-20T08:50:45.557Z,22.59
2018-07-20T08:51:45.479Z,22.59
2018-07-20T08:52:45.520Z,22.59
2018-07-20T08:53:45.700Z,22.59
2018-07-20T08:54:45.332Z,22.59
2018-07-20T08:55:45.308Z,22.59
2018-07-20T08:56:45.513Z,22.59
2018-07-20T08:57:45.347Z,22.59
2018-07-20T08:58:45.481Z,22.59
2018-07-20T08:59:45.535Z,22.58
2018-07-20T09:00:45.707Z,22.59
2018-07-20T09:01:45.603Z,22.59
2018-07-20T09:02:45.573Z,22.59
2018-07-20T09:03:45.611Z,22.59
2018-07-20T09:04:45.713Z,22.59
2018-07-20T09:05:45.521Z,22.58
2018-07-20T09:06:55.531Z,22.59
2018-07-20T09:07:45.676Z,22.59
2018-07-20T09:08:45.307Z,22.59
2018-07-20T09:09:45.386Z,22.59
2018-07-20T09:10:45.475Z,22.59
2018-07-20T09:11:45.524Z,22.59
2018-07-20T09:12:45.480Z,22.58
2018-07-20T09:13:45.793Z,22.59
2018-07-20T09:14:45.451Z,22.59
2018-07-20T09:15:45.433Z,22.59
2018-07-20T09:16:45.614Z,22.59
2018-07-20T09:17:45.626Z,22.6
2018-07-20T09:18:45.558Z,22.58
2018-07-20T09:19:45.437Z,22.58
2018-07-20T09:20:45.692Z,22.58
2018-07-20T09:21:45.663Z,22.59
2018-07-20T09:22:45.547Z,22.6
2018-07-20T09:23:45.430Z,22.59
2018-07-20T09:24:45.392Z,22.59
2018-07-20T09:25:45.604Z,22.58
2018-07-20T09:26:45.557Z,22.59
2018-07-20T09:27:45.469Z,22.58
2018-07-20T09:28:45.396Z,22.58
2018-07-20T09:29:45.578Z,22.59
2018-07-20T09:30:45.550Z,22.58
2018-07-20T09:31:45.461Z,22.58
2018-07-20T09:32:45.578Z,22.58
2018-07-20T09:33:45.435Z,22.58
2018-07-20T09:34:45.361Z,22.58
2018-07-20T09:35:45.448Z,22.59
2018-07-20T09:36:45.497Z,22.58
2018-07-20T09:37:45.305Z,22.58
2018-07-20T09:38:45.559Z,22.59
2018-07-20T09:39:45.508Z,22.59
2018-07-20T09:40:45.476Z,22.58
2018-07-20T09:41:45.504Z,22.58
2018-07-20T09:42:45.280Z,22.58
2018-07-20T09:43:45.524Z,22.59
2018-07-20T09:44:45.658Z,22.59
2018-07-20T09:45:45.346Z,22.58
2018-07-20T09:46:45.550Z,22.6
2018-07-20T09:47:45.509Z,22.59
2018-07-20T09:48:45.319Z,22.59
2018-07-20T09:49:45.548Z,22.59
2018-07-20T09:50:45.431Z,22.59
2018-07-20T09:51:45.284Z,22.6
2018-07-20T09:52:45.696Z,22.59
2018-07-20T09:53:45.317Z,22.59
2018-07-20T09:54:45.618Z,22.59
2018-07-20T09:55:45.531Z,22.59
2018-07-20T09:56:45.657Z,22.59
2018-07-20T09:57:45.409Z,22.58
2018-07-20T09:58:45.554Z,22.59
2018-07-20T09:59:45.537Z,22.59
2018-07-20T10:00:45.498Z,22.59
2018-07-20T10:01:45.333Z,22.59
2018-07-20T10:02:45.542Z,22.58
2018-07-20T10:03:45.401Z,22.59
2018-07-20T10:04:45.536Z,22.59
2018-07-20T10:05:45.639Z,22.58
2018-07-20T10:06:45.569Z,22.59
2018-07-20T10:07:45.460Z,22.59
2018-07-20T10:08:45.542Z,22.59
2018-07-20T10:09:45.436Z,22.58
2018-07-20T10:10:45.698Z,22.58
2018-07-20T10:11:45.494Z,22.59
2018-07-20T10:12:45.441Z,22.59
2018-07-20T10:13:45.469Z,22.58
2018-07-20T10:14:45.558Z,22.58
2018-07-20T10:15:45.571Z,22.58
2018-07-20T10:16:45.724Z,22.58
2018-07-20T10:17:45.482Z,22.58
2018-07-20T10:18:55.712Z,22.58
2018-07-20T10:19:45.491Z,22.59
2018-07-20T10:20:45.561Z,22.58
2018-07-20T10:21:45.501Z,22.59
2018-07-20T10:22:45.601Z,22.59
2018-07-20T10:23:45.370Z,22.59
2018-07-20T10:24:45.511Z,22.58
2018-07-20T10:25:45.639Z,22.58
2018-07-20T10:26:45.320Z,22.58
2018-07-20T10:28:45.528Z,22.59
2018-07-20T10:29:45.273Z,22.58
2018-07-20T10:30:45.523Z,22.58
2018-07-20T10:31:45.503Z,22.59
2018-07-20T10:32:45.322Z,22.58
2018-07-20T10:33:45.540Z,22.58
2018-07-20T10:34:45.507Z,22.59
2018-07-20T10:35:45.507Z,22.58
2018-07-20T10:36:45.353Z,22.58
2018-07-20T10:37:45.609Z,22.59
2018-07-20T10:38:45.292Z,22.59
2018-07-20T10:39:45.441Z,22.59
2018-07-20T10:40:45.535Z,22.59
2018-07-20T10:41:45.373Z,22.58
2018-07-20T10:42:45.341Z,22.59
2018-07-20T10:43:45.596Z,22.59
2018-07-20T10:44:45.499Z,22.59
2018-07-20T10:45:45.494Z,22.59
2018-07-20T10:46:45.502Z,22.58
2018-07-20T10:47:45.343Z,22.58
2018-07-20T10:48:45.722Z,22.58
2018-07-20T10:49:45.401Z,22.6
2018-07-20T10:50:45.395Z,22.58
2018-07-20T10:51:45.402Z,22.59
2018-07-20T10:52:45.336Z,22.6
2018-07-20T10:53:45.361Z,22.58
2018-07-20T10:54:45.455Z,22.58
2018-07-20T10:55:45.441Z,22.58
2018-07-20T10:56:45.429Z,22.58
2018-07-20T10:57:45.412Z,22.58
2018-07-20T10:58:45.683Z,22.58
2018-07-20T10:59:45.605Z,22.59
2018-07-20T11:00:45.376Z,22.58
2018-07-20T11:01:45.639Z,22.58
2018-07-20T11:02:45.515Z,22.58
2018-07-20T11:03:45.623Z,22.59
2018-07-20T11:04:45.498Z,22.59
2018-07-20T11:05:45.307Z,22.58
2018-07-20T11:06:45.357Z,22.59
2018-07-20T11:07:45.578Z,22.59
2018-07-20T11:08:45.552Z,22.59
2018-07-20T11:09:45.355Z,22.58
2018-07-20T11:10:45.345Z,22.58
2018-07-20T11:11:45.529Z,22.58
2018-07-20T11:12:45.480Z,22.58
2018-07-20T11:13:45.604Z,22.59
2018-07-20T11:14:45.503Z,22.58
2018-07-20T11:15:45.379Z,22.54
2018-07-20T11:16:45.458Z,22.6
2018-07-20T11:17:45.579Z,22.61
2018-07-20T11:18:45.545Z,22.61
2018-07-20T11:19:45.671Z,22.6
2018-07-20T11:20:45.446Z,22.59
2018-07-20T11:21:45.751Z,22.59
2018-07-20T11:22:45.569Z,22.59
2018-07-20T11:23:45.371Z,22.59
2018-07-20T11:24:45.622Z,22.61
2018-07-20T11:25:45.616Z,22.63
2018-07-20T11:26:45.618Z,22.63
2018-07-20T11:27:45.545Z,22.62
2018-07-20T11:28:45.415Z,22.63
2018-07-20T11:29:45.649Z,22.63
2018-07-20T11:30:45.594Z,22.63
2018-07-20T11:31:45.521Z,22.62
2018-07-20T11:32:45.264Z,22.63
2018-07-20T11:33:45.380Z,22.63
2018-07-20T11:34:45.598Z,22.62
2018-07-20T11:35:45.342Z,22.63
2018-07-20T11:36:45.584Z,22.61
2018-07-20T11:37:45.485Z,22.62
2018-07-20T11:38:45.429Z,22.62
2018-07-20T11:39:45.423Z,22.61
2018-07-20T11:40:45.601Z,22.6
2018-07-20T11:41:45.261Z,22.61
2018-07-20T11:42:45.730Z,22.62
2018-07-20T11:43:45.346Z,22.61
2018-07-20T11:44:45.532Z,22.62
2018-07-20T11:45:45.429Z,22.59
2018-07-20T11:46:45.558Z,22.61
2018-07-20T11:47:45.590Z,22.61
2018-07-20T11:48:45.576Z,22.6
2018-07-20T11:49:45.351Z,22.61
2018-07-20T11:50:45.246Z,22.6
2018-07-20T11:51:45.560Z,22.6
2018-07-20T11:52:45.562Z,22.6
2018-07-20T11:53:45.320Z,22.6
2018-07-20T11:54:45.447Z,22.61
2018-07-20T11:55:45.454Z,22.6
2018-07-20T11:56:45.292Z,22.58
2018-07-20T11:57:45.328Z,22.6
2018-07-20T11:58:45.273Z,22.61
2018-07-20T12:00:07.294Z,22.62
2018-07-20T12:00:45.567Z,22.61
2018-07-20T12:01:45.474Z,22.59
2018-07-20T12:02:45.337Z,22.6
2018-07-20T12:03:45.543Z,22.59
2018-07-20T12:04:45.409Z,22.58
2018-07-20T12:05:45.373Z,22.59
2018-07-20T12:06:45.527Z,22.61
2018-07-20T12:07:45.325Z,22.6
2018-07-20T12:08:45.546Z,22.61
2018-07-20T12:09:45.325Z,22.58
2018-07-20T12:10:45.486Z,22.59
2018-07-20T12:11:45.305Z,22.59
2018-07-20T12:12:45.394Z,22.59
2018-07-20T12:13:45.550Z,22.59
2018-07-20T12:14:45.347Z,22.6
2018-07-20T12:15:45.313Z,22.58
2018-07-20T12:16:45.579Z,22.58
2018-07-20T12:17:45.612Z,22.59
2018-07-20T12:18:45.412Z,22.59
2018-07-20T12:19:45.562Z,22.59
2018-07-20T12:20:45.495Z,22.59
2018-07-20T12:21:45.580Z,22.61
2018-07-20T12:22:45.421Z,22.59
2018-07-20T12:23:45.554Z,22.59
2018-07-20T12:24:45.881Z,22.6
2018-07-20T12:25:45.614Z,22.6
2018-07-20T12:26:45.333Z,22.59
2018-07-20T12:27:45.624Z,22.59
2018-07-20T12:28:45.487Z,22.59
2018-07-20T12:29:45.563Z,22.58
2018-07-20T12:30:45.415Z,22.59
2018-07-20T12:31:45.699Z,22.59
2018-07-20T12:32:45.426Z,22.59
2018-07-20T12:33:45.545Z,22.58
2018-07-20T12:34:45.603Z,22.59
2018-07-20T12:35:45.507Z,22.59
2018-07-20T12:36:45.744Z,22.59
2018-07-20T12:37:45.743Z,22.59
2018-07-20T12:39:07.551Z,22.59
2018-07-20T12:39:45.506Z,22.59
2018-07-20T12:40:45.445Z,22.61
2018-07-20T12:41:45.290Z,22.59
2018-07-20T12:42:45.341Z,22.59
2018-07-20T12:43:45.443Z,22.59
2018-07-20T12:44:45.548Z,22.6
2018-07-20T12:45:45.655Z,22.63
2018-07-20T12:46:45.628Z,22.63
2018-07-20T12:47:45.388Z,22.67
2018-07-20T12:48:45.516Z,22.67
2018-07-20T12:49:45.348Z,22.69
2018-07-20T12:50:45.300Z,22.71
2018-07-20T12:51:45.331Z,22.71
2018-07-20T12:52:45.686Z,22.72
2018-07-20T12:53:45.270Z,22.73
2018-07-20T12:54:45.325Z,22.72
2018-07-20T12:55:45.683Z,22.72
2018-07-20T12:56:45.346Z,22.73
2018-07-20T12:57:45.266Z,22.73